sensor_id;sensor_type;location;lat;lon;timestamp;pressure;altitude;pressure_sealevel;temperature;humidity
67430;BME280;54298;52.076;5.264;2022-08-21T00:01:28;101667.0;;;14.69;77.81
67430;BME280;54298;52.076;5.264;2022-08-21T00:03:07;101670.0;;;14.7;77.55
67430;BME280;54298;52.076;5.264;2022-08-21T00:04:46;101670.0;;;14.66;77.52
67430;BME280;54298;52.076;5.264;2022-08-21T00:06:24;101668.0;;;14.66;77.41
67430;BME280;54298;52.076;5.264;2022-08-21T00:09:39;101671.0;;;14.65;77.39
67430;BME280;54298;52.076;5.264;2022-08-21T00:11:17;101667.0;;;14.61;77.44
67430;BME280;54298;52.076;5.264;2022-08-21T00:12:54;101667.0;;;14.55;77.67
67430;BME280;54298;52.076;5.264;2022-08-21T00:16:09;101662.0;;;14.56;77.5
67430;BME280;54298;52.076;5.264;2022-08-21T00:17:46;101665.0;;;14.49;77.69
67430;BME280;54298;52.076;5.264;2022-08-21T00:19:25;101664.0;;;14.39;78.19
67430;BME280;54298;52.076;5.264;2022-08-21T00:21:03;101669.0;;;14.3;78.56
67430;BME280;54298;52.076;5.264;2022-08-21T00:24:18;101668.0;;;14.39;78.25
67430;BME280;54298;52.076;5.264;2022-08-21T00:25:54;101666.0;;;14.45;78.05
67430;BME280;54298;52.076;5.264;2022-08-21T00:27:31;101662.0;;;14.47;78.22
67430;BME280;54298;52.076;5.264;2022-08-21T00:30:43;101658.0;;;14.43;78.11
67430;BME280;54298;52.076;5.264;2022-08-21T00:32:21;101656.0;;;14.48;77.83
67430;BME280;54298;52.076;5.264;2022-08-21T00:33:59;101652.0;;;14.51;77.63
67430;BME280;54298;52.076;5.264;2022-08-21T00:37:17;101650.0;;;14.41;77.74
67430;BME280;54298;52.076;5.264;2022-08-21T00:38:54;101649.0;;;14.25;78.34
67430;BME280;54298;52.076;5.264;2022-08-21T00:40:35;101650.0;;;14.04;79.42
67430;BME280;54298;52.076;5.264;2022-08-21T00:42:15;101647.0;;;14.08;79.53
67430;BME280;54298;52.076;5.264;2022-08-21T00:45:32;101650.0;;;14.21;78.91
67430;BME280;54298;52.076;5.264;2022-08-21T00:47:09;101648.0;;;14.22;78.91
67430;BME280;54298;52.076;5.264;2022-08-21T00:48:46;101653.0;;;14.22;78.67
67430;BME280;54298;52.076;5.264;2022-08-21T00:50:26;101653.0;;;14.1;79.06
67430;BME280;54298;52.076;5.264;2022-08-21T00:53:46;101650.0;;;14.15;78.67
67430;BME280;54298;52.076;5.264;2022-08-21T00:55:23;101653.0;;;14.17;78.13
67430;BME280;54298;52.076;5.264;2022-08-21T00:57:05;101651.0;;;14.32;77.58
67430;BME280;54298;52.076;5.264;2022-08-21T00:58:46;101649.0;;;14.3;77.38
67430;BME280;54298;52.076;5.264;2022-08-21T01:02:07;101648.0;;;14.2;77.48
67430;BME280;54298;52.076;5.264;2022-08-21T01:03:45;101652.0;;;14.27;77.27
67430;BME280;54298;52.076;5.264;2022-08-21T01:05:23;101657.0;;;14.26;77.28
67430;BME280;54298;52.076;5.264;2022-08-21T01:07:00;101658.0;;;14.17;77.5
67430;BME280;54298;52.076;5.264;2022-08-21T01:10:16;101652.0;;;14.13;77.69
67430;BME280;54298;52.076;5.264;2022-08-21T01:11:53;101653.0;;;14.16;77.52
67430;BME280;54298;52.076;5.264;2022-08-21T01:13:32;101655.0;;;14.03;78.05
67430;BME280;54298;52.076;5.264;2022-08-21T01:16:52;101650.0;;;14.01;78.23
67430;BME280;54298;52.076;5.264;2022-08-21T01:18:30;101646.0;;;14.04;78.08
67430;BME280;54298;52.076;5.264;2022-08-21T01:20:11;101643.0;;;14.07;77.8
67430;BME280;54298;52.076;5.264;2022-08-21T01:21:47;101645.0;;;14.06;77.77
67430;BME280;54298;52.076;5.264;2022-08-21T01:25:03;101647.0;;;14.03;77.8
67430;BME280;54298;52.076;5.264;2022-08-21T01:26:41;101649.0;;;13.94;78.05
67430;BME280;54298;52.076;5.264;2022-08-21T01:28:21;101655.0;;;13.93;78.19
67430;BME280;54298;52.076;5.264;2022-08-21T01:31:44;101655.0;;;13.84;78.67
67430;BME280;54298;52.076;5.264;2022-08-21T01:33:24;101655.0;;;13.88;78.58
67430;BME280;54298;52.076;5.264;2022-08-21T01:35:02;101649.0;;;13.89;78.58
67430;BME280;54298;52.076;5.264;2022-08-21T01:36:40;101655.0;;;13.92;78.44
67430;BME280;54298;52.076;5.264;2022-08-21T01:39:53;101650.0;;;13.97;78.08
67430;BME280;54298;52.076;5.264;2022-08-21T01:41:29;101645.0;;;13.88;78.19
67430;BME280;54298;52.076;5.264;2022-08-21T01:43:06;101644.0;;;13.93;78.25
67430;BME280;54298;52.076;5.264;2022-08-21T01:44:43;101643.0;;;13.89;78.24
67430;BME280;54298;52.076;5.264;2022-08-21T01:47:56;101642.0;;;13.87;78.49
67430;BME280;54298;52.076;5.264;2022-08-21T01:49:32;101643.0;;;13.76;78.91
67430;BME280;54298;52.076;5.264;2022-08-21T01:51:11;101640.0;;;13.8;78.75
67430;BME280;54298;52.076;5.264;2022-08-21T01:54:25;101642.0;;;13.77;78.97
67430;BME280;54298;52.076;5.264;2022-08-21T01:56:03;101641.0;;;13.67;79.64
67430;BME280;54298;52.076;5.264;2022-08-21T01:57:42;101631.0;;;13.69;79.5
67430;BME280;54298;52.076;5.264;2022-08-21T01:59:20;101637.0;;;13.68;79.49
67430;BME280;54298;52.076;5.264;2022-08-21T02:02:35;101631.0;;;13.7;79.47
67430;BME280;54298;52.076;5.264;2022-08-21T02:04:11;101633.0;;;13.7;79.5
67430;BME280;54298;52.076;5.264;2022-08-21T02:05:48;101634.0;;;13.74;79.39
67430;BME280;54298;52.076;5.264;2022-08-21T02:09:02;101631.0;;;13.81;79.02
67430;BME280;54298;52.076;5.264;2022-08-21T02:10:41;101633.0;;;13.74;79.19
67430;BME280;54298;52.076;5.264;2022-08-21T02:12:18;101633.0;;;13.82;78.86
67430;BME280;54298;52.076;5.264;2022-08-21T02:15:30;101632.0;;;13.78;78.87
67430;BME280;54298;52.076;5.264;2022-08-21T02:17:07;101632.0;;;13.76;78.94
67430;BME280;54298;52.076;5.264;2022-08-21T02:18:43;101630.0;;;13.74;79.08
67430;BME280;54298;52.076;5.264;2022-08-21T02:20:21;101632.0;;;13.73;79.11
67430;BME280;54298;52.076;5.264;2022-08-21T02:23:40;101625.0;;;13.75;79.06
67430;BME280;54298;52.076;5.264;2022-08-21T02:25:16;101619.0;;;13.73;79.09
67430;BME280;54298;52.076;5.264;2022-08-21T02:26:54;101622.0;;;13.69;79.28
67430;BME280;54298;52.076;5.264;2022-08-21T02:30:10;101621.0;;;13.76;78.84
67430;BME280;54298;52.076;5.264;2022-08-21T02:31:47;101622.0;;;13.65;79.16
67430;BME280;54298;52.076;5.264;2022-08-21T02:33:24;101623.0;;;13.59;79.42
67430;BME280;54298;52.076;5.264;2022-08-21T02:35:03;101622.0;;;13.67;79.08
67430;BME280;54298;52.076;5.264;2022-08-21T02:38:19;101618.0;;;13.63;79.17
67430;BME280;54298;52.076;5.264;2022-08-21T02:39:59;101620.0;;;13.65;79.08
67430;BME280;54298;52.076;5.264;2022-08-21T02:41:36;101611.0;;;13.7;78.87
67430;BME280;54298;52.076;5.264;2022-08-21T02:44:51;101610.0;;;13.63;79.08
67430;BME280;54298;52.076;5.264;2022-08-21T02:46:28;101605.0;;;13.66;78.88
67430;BME280;54298;52.076;5.264;2022-08-21T02:48:06;101601.0;;;13.74;78.58
67430;BME280;54298;52.076;5.264;2022-08-21T02:49:44;101607.0;;;13.69;78.67
67430;BME280;54298;52.076;5.264;2022-08-21T02:52:59;101611.0;;;13.59;78.95
67430;BME280;54298;52.076;5.264;2022-08-21T02:54:36;101606.0;;;13.56;79.08
67430;BME280;54298;52.076;5.264;2022-08-21T02:56:16;101609.0;;;13.56;79.09
67430;BME280;54298;52.076;5.264;2022-08-21T02:57:56;101606.0;;;13.45;79.64
67430;BME280;54298;52.076;5.264;2022-08-21T03:01:11;101608.0;;;13.45;79.8
67430;BME280;54298;52.076;5.264;2022-08-21T03:02:49;101606.0;;;13.49;79.42
67430;BME280;54298;52.076;5.264;2022-08-21T03:04:26;101598.0;;;13.48;79.47
67430;BME280;54298;52.076;5.264;2022-08-21T03:07:42;101600.0;;;13.43;79.55
67430;BME280;54298;52.076;5.264;2022-08-21T03:09:19;101596.0;;;13.23;80.33
67430;BME280;54298;52.076;5.264;2022-08-21T03:10:55;101600.0;;;13.21;80.52
67430;BME280;54298;52.076;5.264;2022-08-21T03:12:32;101597.0;;;13.2;80.62
67430;BME280;54298;52.076;5.264;2022-08-21T03:15:46;101596.0;;;13.31;80.28
67430;BME280;54298;52.076;5.264;2022-08-21T03:17:23;101592.0;;;13.35;80.05
67430;BME280;54298;52.076;5.264;2022-08-21T03:19:00;101585.0;;;13.35;80.09
67430;BME280;54298;52.076;5.264;2022-08-21T03:22:17;101591.0;;;13.36;79.91
67430;BME280;54298;52.076;5.264;2022-08-21T03:23:54;101592.0;;;13.39;79.63
67430;BME280;54298;52.076;5.264;2022-08-21T03:25:33;101587.0;;;13.42;79.47
67430;BME280;54298;52.076;5.264;2022-08-21T03:27:12;101589.0;;;13.43;79.28
67430;BME280;54298;52.076;5.264;2022-08-21T03:30:28;101589.0;;;13.44;79.22
67430;BME280;54298;52.076;5.264;2022-08-21T03:32:05;101588.0;;;13.5;78.91
67430;BME280;54298;52.076;5.264;2022-08-21T03:33:41;101581.0;;;13.45;78.74
67430;BME280;54298;52.076;5.264;2022-08-21T03:36:56;101585.0;;;13.31;79.14
67430;BME280;54298;52.076;5.264;2022-08-21T03:38:34;101582.0;;;13.5;78.58
67430;BME280;54298;52.076;5.264;2022-08-21T03:40:14;101583.0;;;13.52;78.3
67430;BME280;54298;52.076;5.264;2022-08-21T03:41:53;101583.0;;;13.43;78.47
67430;BME280;54298;52.076;5.264;2022-08-21T03:45:07;101583.0;;;13.38;78.58
67430;BME280;54298;52.076;5.264;2022-08-21T03:46:46;101586.0;;;13.31;78.7
67430;BME280;54298;52.076;5.264;2022-08-21T03:48:22;101585.0;;;13.24;78.94
67430;BME280;54298;52.076;5.264;2022-08-21T03:51:36;101580.0;;;13.2;79.28
67430;BME280;54298;52.076;5.264;2022-08-21T03:53:14;101583.0;;;13.19;79.44
67430;BME280;54298;52.076;5.264;2022-08-21T03:54:51;101586.0;;;13.15;79.66
67430;BME280;54298;52.076;5.264;2022-08-21T03:56:29;101583.0;;;13.18;79.42
67430;BME280;54298;52.076;5.264;2022-08-21T03:59:43;101577.0;;;13.22;79.19
67430;BME280;54298;52.076;5.264;2022-08-21T04:01:20;101582.0;;;13.16;79.31
67430;BME280;54298;52.076;5.264;2022-08-21T04:02:56;101578.0;;;13.19;79.16
67430;BME280;54298;52.076;5.264;2022-08-21T04:06:10;101578.0;;;13.19;79.0
67430;BME280;54298;52.076;5.264;2022-08-21T04:07:47;101578.0;;;13.22;78.67
67430;BME280;54298;52.076;5.264;2022-08-21T04:09:25;101574.0;;;13.22;78.66
67430;BME280;54298;52.076;5.264;2022-08-21T04:12:39;101576.0;;;13.25;78.55
67430;BME280;54298;52.076;5.264;2022-08-21T04:14:16;101575.0;;;13.15;78.86
67430;BME280;54298;52.076;5.264;2022-08-21T04:15:54;101582.0;;;13.11;79.22
67430;BME280;54298;52.076;5.264;2022-08-21T04:17:30;101582.0;;;12.98;79.81
67430;BME280;54298;52.076;5.264;2022-08-21T04:20:45;101581.0;;;13.05;79.74
67430;BME280;54298;52.076;5.264;2022-08-21T04:22:24;101587.0;;;13.01;79.64
67430;BME280;54298;52.076;5.264;2022-08-21T04:24:00;101581.0;;;12.96;80.05
67430;BME280;54298;52.076;5.264;2022-08-21T04:27:13;101588.0;;;12.92;80.27
67430;BME280;54298;52.076;5.264;2022-08-21T04:28:49;101586.0;;;12.95;80.27
67430;BME280;54298;52.076;5.264;2022-08-21T04:30:26;101586.0;;;13.04;79.86
67430;BME280;54298;52.076;5.264;2022-08-21T04:32:03;101580.0;;;12.85;80.36
67430;BME280;54298;52.076;5.264;2022-08-21T04:35:18;101586.0;;;12.98;80.24
67430;BME280;54298;52.076;5.264;2022-08-21T04:36:56;101585.0;;;13.03;79.97
67430;BME280;54298;52.076;5.264;2022-08-21T04:38:33;101590.0;;;13.0;80.06
67430;BME280;54298;52.076;5.264;2022-08-21T04:41:49;101589.0;;;12.84;80.88
67430;BME280;54298;52.076;5.264;2022-08-21T04:43:25;101591.0;;;13.01;80.23
67430;BME280;54298;52.076;5.264;2022-08-21T04:45:02;101589.0;;;13.13;79.8
67430;BME280;54298;52.076;5.264;2022-08-21T04:46:38;101589.0;;;13.13;79.83
67430;BME280;54298;52.076;5.264;2022-08-21T04:49:56;101588.0;;;13.05;80.06
67430;BME280;54298;52.076;5.264;2022-08-21T04:51:34;101585.0;;;13.07;80.23
67430;BME280;54298;52.076;5.264;2022-08-21T04:53:16;101588.0;;;13.01;80.5
67430;BME280;54298;52.076;5.264;2022-08-21T04:56:37;101591.0;;;13.0;80.8
67430;BME280;54298;52.076;5.264;2022-08-21T04:58:19;101596.0;;;12.98;81.24
67430;BME280;54298;52.076;5.264;2022-08-21T04:59:57;101591.0;;;13.02;81.02
67430;BME280;54298;52.076;5.264;2022-08-21T05:01:35;101596.0;;;13.06;81.16
67430;BME280;54298;52.076;5.264;2022-08-21T05:04:53;101605.0;;;13.03;81.34
67430;BME280;54298;52.076;5.264;2022-08-21T05:06:34;101610.0;;;13.05;81.08
67430;BME280;54298;52.076;5.264;2022-08-21T05:08:16;101609.0;;;13.01;81.62
67430;BME280;54298;52.076;5.264;2022-08-21T05:09:55;101608.0;;;13.11;81.47
67430;BME280;54298;52.076;5.264;2022-08-21T05:13:11;101610.0;;;13.1;81.47
67430;BME280;54298;52.076;5.264;2022-08-21T05:14:48;101618.0;;;13.11;81.66
67430;BME280;54298;52.076;5.264;2022-08-21T05:16:26;101617.0;;;13.13;81.66
67430;BME280;54298;52.076;5.264;2022-08-21T05:18:04;101616.0;;;13.15;81.7
67430;BME280;54298;52.076;5.264;2022-08-21T05:21:17;101617.0;;;13.22;81.47
67430;BME280;54298;52.076;5.264;2022-08-21T05:22:53;101621.0;;;13.26;81.61
67430;BME280;54298;52.076;5.264;2022-08-21T05:24:30;101622.0;;;13.28;81.77
67430;BME280;54298;52.076;5.264;2022-08-21T05:27:43;101618.0;;;13.23;82.01
67430;BME280;54298;52.076;5.264;2022-08-21T05:29:20;101619.0;;;13.34;81.77
67430;BME280;54298;52.076;5.264;2022-08-21T05:30:57;101621.0;;;13.4;81.69
67430;BME280;54298;52.076;5.264;2022-08-21T05:34:13;101623.0;;;13.44;81.47
67430;BME280;54298;52.076;5.264;2022-08-21T05:35:50;101617.0;;;13.5;81.52
67430;BME280;54298;52.076;5.264;2022-08-21T05:37:28;101621.0;;;13.61;81.53
67430;BME280;54298;52.076;5.264;2022-08-21T05:39:04;101620.0;;;13.65;81.47
67430;BME280;54298;52.076;5.264;2022-08-21T05:42:17;101620.0;;;13.72;82.05
67430;BME280;54298;52.076;5.264;2022-08-21T05:43:53;101621.0;;;13.84;82.62
67430;BME280;54298;52.076;5.264;2022-08-21T05:45:31;101623.0;;;13.92;83.09
67430;BME280;54298;52.076;5.264;2022-08-21T05:48:47;101624.0;;;14.04;83.07
67430;BME280;54298;52.076;5.264;2022-08-21T05:50:23;101620.0;;;14.17;82.75
67430;BME280;54298;52.076;5.264;2022-08-21T05:52:00;101620.0;;;14.25;82.93
67430;BME280;54298;52.076;5.264;2022-08-21T05:53:38;101611.0;;;14.34;84.45
67430;BME280;54298;52.076;5.264;2022-08-21T05:56:51;101614.0;;;14.51;84.8
67430;BME280;54298;52.076;5.264;2022-08-21T05:58:28;101616.0;;;14.68;84.63
67430;BME280;54298;52.076;5.264;2022-08-21T06:00:05;101618.0;;;14.84;84.41
67430;BME280;54298;52.076;5.264;2022-08-21T06:03:21;101619.0;;;14.95;84.15
67430;BME280;54298;52.076;5.264;2022-08-21T06:05:00;101613.0;;;15.06;83.91
67430;BME280;54298;52.076;5.264;2022-08-21T06:06:38;101612.0;;;15.16;83.57
67430;BME280;54298;52.076;5.264;2022-08-21T06:08:14;101616.0;;;15.3;83.26
67430;BME280;54298;52.076;5.264;2022-08-21T06:11:27;101617.0;;;15.36;83.18
67430;BME280;54298;52.076;5.264;2022-08-21T06:13:04;101615.0;;;15.58;82.37
67430;BME280;54298;52.076;5.264;2022-08-21T06:14:41;101614.0;;;15.73;82.02
67430;BME280;54298;52.076;5.264;2022-08-21T06:17:55;101611.0;;;15.87;81.58
67430;BME280;54298;52.076;5.264;2022-08-21T06:19:32;101608.0;;;15.94;81.33
67430;BME280;54298;52.076;5.264;2022-08-21T06:21:09;101615.0;;;15.96;81.44
67430;BME280;54298;52.076;5.264;2022-08-21T06:24:22;101613.0;;;15.98;81.42
67430;BME280;54298;52.076;5.264;2022-08-21T06:26:00;101610.0;;;16.15;80.91
67430;BME280;54298;52.076;5.264;2022-08-21T06:27:37;101612.0;;;16.29;80.52
67430;BME280;54298;52.076;5.264;2022-08-21T06:29:17;101616.0;;;16.4;80.23
67430;BME280;54298;52.076;5.264;2022-08-21T06:32:31;101613.0;;;16.4;80.36
67430;BME280;54298;52.076;5.264;2022-08-21T06:34:07;101615.0;;;16.47;80.19
67430;BME280;54298;52.076;5.264;2022-08-21T06:35:45;101609.0;;;16.64;79.75
67430;BME280;54298;52.076;5.264;2022-08-21T06:38:58;101612.0;;;16.68;79.49
67430;BME280;54298;52.076;5.264;2022-08-21T06:40:34;101614.0;;;16.77;79.25
67430;BME280;54298;52.076;5.264;2022-08-21T06:42:13;101614.0;;;16.9;79.27
67430;BME280;54298;52.076;5.264;2022-08-21T06:43:51;101614.0;;;16.98;79.0
67430;BME280;54298;52.076;5.264;2022-08-21T06:47:04;101614.0;;;16.98;79.36
67430;BME280;54298;52.076;5.264;2022-08-21T06:48:41;101608.0;;;17.06;79.12
67430;BME280;54298;52.076;5.264;2022-08-21T06:50:17;101612.0;;;17.16;78.63
67430;BME280;54298;52.076;5.264;2022-08-21T06:53:32;101614.0;;;17.27;78.61
67430;BME280;54298;52.076;5.264;2022-08-21T06:55:10;101614.0;;;17.28;78.52
67430;BME280;54298;52.076;5.264;2022-08-21T06:56:49;101614.0;;;17.36;78.38
67430;BME280;54298;52.076;5.264;2022-08-21T06:58:26;101613.0;;;17.5;78.0
67430;BME280;54298;52.076;5.264;2022-08-21T07:01:43;101614.0;;;17.52;78.08
67430;BME280;54298;52.076;5.264;2022-08-21T07:03:23;101614.0;;;17.52;78.39
67430;BME280;54298;52.076;5.264;2022-08-21T07:05:01;101611.0;;;17.68;77.86
67430;BME280;54298;52.076;5.264;2022-08-21T07:08:15;101606.0;;;17.71;77.77
67430;BME280;54298;52.076;5.264;2022-08-21T07:09:52;101608.0;;;17.71;77.77
67430;BME280;54298;52.076;5.264;2022-08-21T07:11:29;101606.0;;;17.89;77.49
67430;BME280;54298;52.076;5.264;2022-08-21T07:13:05;101599.0;;;18.02;77.03
67430;BME280;54298;52.076;5.264;2022-08-21T07:16:19;101601.0;;;18.02;77.25
67430;BME280;54298;52.076;5.264;2022-08-21T07:17:57;101601.0;;;18.13;76.99
67430;BME280;54298;52.076;5.264;2022-08-21T07:19:34;101602.0;;;18.25;76.72
67430;BME280;54298;52.076;5.264;2022-08-21T07:22:47;101598.0;;;18.16;77.11
67430;BME280;54298;52.076;5.264;2022-08-21T07:24:23;101600.0;;;18.23;76.89
67430;BME280;54298;52.076;5.264;2022-08-21T07:26:01;101601.0;;;18.29;76.8
67430;BME280;54298;52.076;5.264;2022-08-21T07:29:13;101602.0;;;18.43;76.52
67430;BME280;54298;52.076;5.264;2022-08-21T07:30:51;101605.0;;;18.5;76.23
67430;BME280;54298;52.076;5.264;2022-08-21T07:32:29;101603.0;;;18.43;76.61
67430;BME280;54298;52.076;5.264;2022-08-21T07:34:08;101605.0;;;18.61;76.44
67430;BME280;54298;52.076;5.264;2022-08-21T07:37:21;101609.0;;;18.56;76.47
67430;BME280;54298;52.076;5.264;2022-08-21T07:38:58;101611.0;;;18.66;76.25
67430;BME280;54298;52.076;5.264;2022-08-21T07:40:35;101609.0;;;18.77;75.8
67430;BME280;54298;52.076;5.264;2022-08-21T07:43:47;101614.0;;;18.97;75.33
67430;BME280;54298;52.076;5.264;2022-08-21T07:45:27;101613.0;;;19.02;74.77
67430;BME280;54298;52.076;5.264;2022-08-21T07:47:03;101613.0;;;19.09;74.47
67430;BME280;54298;52.076;5.264;2022-08-21T07:48:40;101610.0;;;19.03;74.84
67430;BME280;54298;52.076;5.264;2022-08-21T07:51:55;101612.0;;;19.11;74.7
67430;BME280;54298;52.076;5.264;2022-08-21T07:53:31;101612.0;;;19.23;74.36
67430;BME280;54298;52.076;5.264;2022-08-21T07:55:09;101614.0;;;19.27;74.19
67430;BME280;54298;52.076;5.264;2022-08-21T07:58:23;101618.0;;;19.43;74.08
67430;BME280;54298;52.076;5.264;2022-08-21T08:00:00;101616.0;;;19.46;73.77
67430;BME280;54298;52.076;5.264;2022-08-21T08:01:36;101616.0;;;19.48;73.69
67430;BME280;54298;52.076;5.264;2022-08-21T08:04:50;101617.0;;;19.52;73.74
67430;BME280;54298;52.076;5.264;2022-08-21T08:06:27;101612.0;;;19.5;73.67
67430;BME280;54298;52.076;5.264;2022-08-21T08:08:04;101612.0;;;19.48;73.58
67430;BME280;54298;52.076;5.264;2022-08-21T08:09:41;101605.0;;;19.46;73.61
67430;BME280;54298;52.076;5.264;2022-08-21T08:12:55;101605.0;;;19.54;73.58
67430;BME280;54298;52.076;5.264;2022-08-21T08:14:32;101605.0;;;19.72;72.97
67430;BME280;54298;52.076;5.264;2022-08-21T08:16:09;101597.0;;;19.7;73.25
67430;BME280;54298;52.076;5.264;2022-08-21T08:19:24;101602.0;;;19.91;72.73
67430;BME280;54298;52.076;5.264;2022-08-21T08:21:01;101608.0;;;19.95;72.38
67430;BME280;54298;52.076;5.264;2022-08-21T08:22:39;101605.0;;;19.88;72.8
67430;BME280;54298;52.076;5.264;2022-08-21T08:24:16;101605.0;;;19.95;72.42
67430;BME280;54298;52.076;5.264;2022-08-21T08:27:30;101605.0;;;20.0;72.64
67430;BME280;54298;52.076;5.264;2022-08-21T08:29:08;101607.0;;;20.05;72.22
67430;BME280;54298;52.076;5.264;2022-08-21T08:30:45;101603.0;;;20.02;72.3
67430;BME280;54298;52.076;5.264;2022-08-21T08:33:59;101601.0;;;20.18;72.27
67430;BME280;54298;52.076;5.264;2022-08-21T08:35:36;101602.0;;;20.2;72.25
67430;BME280;54298;52.076;5.264;2022-08-21T08:37:13;101599.0;;;20.31;71.63
67430;BME280;54298;52.076;5.264;2022-08-21T08:40:42;101605.0;;;20.31;71.64
67430;BME280;54298;52.076;5.264;2022-08-21T08:42:28;101605.0;;;20.3;71.27
67430;BME280;54298;52.076;5.264;2022-08-21T08:44:07;101606.0;;;20.34;71.39
67430;BME280;54298;52.076;5.264;2022-08-21T08:45:48;101602.0;;;20.45;71.17
67430;BME280;54298;52.076;5.264;2022-08-21T08:47:27;101602.0;;;20.57;70.86
67430;BME280;54298;52.076;5.264;2022-08-21T08:50:52;101601.0;;;20.65;70.31
67430;BME280;54298;52.076;5.264;2022-08-21T08:52:34;101597.0;;;20.72;70.08
67430;BME280;54298;52.076;5.264;2022-08-21T08:54:17;101596.0;;;20.83;69.78
67430;BME280;54298;52.076;5.264;2022-08-21T08:56:00;101592.0;;;20.95;69.61
67430;BME280;54298;52.076;5.264;2022-08-21T08:59:19;101589.0;;;20.93;69.42
67430;BME280;54298;52.076;5.264;2022-08-21T09:01:10;101588.0;;;21.15;68.58
67430;BME280;54298;52.076;5.264;2022-08-21T09:02:54;101589.0;;;21.24;68.45
67430;BME280;54298;52.076;5.264;2022-08-21T09:04:31;101583.0;;;21.34;67.69
67430;BME280;54298;52.076;5.264;2022-08-21T09:06:19;101583.0;;;21.38;67.44
67430;BME280;54298;52.076;5.264;2022-08-21T09:10:13;101583.0;;;21.54;67.44
67430;BME280;54298;52.076;5.264;2022-08-21T09:12:00;101582.0;;;21.43;67.05
67430;BME280;54298;52.076;5.264;2022-08-21T09:13:48;101590.0;;;21.44;67.55
67430;BME280;54298;52.076;5.264;2022-08-21T09:15:32;101591.0;;;21.36;66.84
67430;BME280;54298;52.076;5.264;2022-08-21T09:17:20;101593.0;;;21.37;66.42
67430;BME280;54298;52.076;5.264;2022-08-21T09:19:25;101585.0;;;21.39;66.77
67430;BME280;54298;52.076;5.264;2022-08-21T09:21:19;101588.0;;;21.42;66.83
67430;BME280;54298;52.076;5.264;2022-08-21T09:23:12;101590.0;;;21.28;67.0
67430;BME280;54298;52.076;5.264;2022-08-21T09:25:03;101587.0;;;21.32;67.06
67430;BME280;54298;52.076;5.264;2022-08-21T09:28:34;101588.0;;;21.32;67.05
67430;BME280;54298;52.076;5.264;2022-08-21T09:30:12;101586.0;;;21.37;67.34
67430;BME280;54298;52.076;5.264;2022-08-21T09:31:49;101582.0;;;21.44;67.12
67430;BME280;54298;52.076;5.264;2022-08-21T09:33:26;101586.0;;;21.54;66.63
67430;BME280;54298;52.076;5.264;2022-08-21T09:36:49;101582.0;;;21.64;66.03
67430;BME280;54298;52.076;5.264;2022-08-21T09:38:30;101585.0;;;21.83;65.88
67430;BME280;54298;52.076;5.264;2022-08-21T09:40:20;101584.0;;;21.77;65.19
67430;BME280;54298;52.076;5.264;2022-08-21T09:42:08;101588.0;;;21.92;64.92
67430;BME280;54298;52.076;5.264;2022-08-21T09:43:52;101589.0;;;21.95;64.19
67430;BME280;54298;52.076;5.264;2022-08-21T09:47:09;101590.0;;;22.12;64.19
67430;BME280;54298;52.076;5.264;2022-08-21T09:48:48;101589.0;;;22.24;64.16
67430;BME280;54298;52.076;5.264;2022-08-21T09:50:27;101590.0;;;22.23;63.38
67430;BME280;54298;52.076;5.264;2022-08-21T09:52:15;101590.0;;;22.18;62.07
67430;BME280;54298;52.076;5.264;2022-08-21T09:58:47;101584.0;;;22.36;61.91
67430;BME280;54298;52.076;5.264;2022-08-21T10:02:21;101583.0;;;22.35;61.64
67430;BME280;54298;52.076;5.264;2022-08-21T10:04:03;101585.0;;;22.21;61.85
67430;BME280;54298;52.076;5.264;2022-08-21T10:05:52;101580.0;;;22.41;60.37
67430;BME280;54298;52.076;5.264;2022-08-21T10:07:32;101577.0;;;22.63;61.02
67430;BME280;54298;52.076;5.264;2022-08-21T10:09:14;101580.0;;;22.7;60.95
67430;BME280;54298;52.076;5.264;2022-08-21T10:10:55;101575.0;;;22.82;60.47
67430;BME280;54298;52.076;5.264;2022-08-21T10:14:41;101575.0;;;22.9;60.06
67430;BME280;54298;52.076;5.264;2022-08-21T10:16:40;101571.0;;;22.94;59.16
67430;BME280;54298;52.076;5.264;2022-08-21T10:18:35;101574.0;;;23.05;59.16
67430;BME280;54298;52.076;5.264;2022-08-21T10:20:20;101571.0;;;23.06;59.03
67430;BME280;54298;52.076;5.264;2022-08-21T10:22:04;101568.0;;;23.22;58.61
67430;BME280;54298;52.076;5.264;2022-08-21T10:23:57;101565.0;;;23.1;58.96
67430;BME280;54298;52.076;5.264;2022-08-21T10:25:42;101566.0;;;23.2;58.63
67430;BME280;54298;52.076;5.264;2022-08-21T10:29:22;101565.0;;;23.29;57.73
67430;BME280;54298;52.076;5.264;2022-08-21T10:31:24;101570.0;;;23.49;57.7
67430;BME280;54298;52.076;5.264;2022-08-21T10:35:06;101569.0;;;23.33;57.67
67430;BME280;54298;52.076;5.264;2022-08-21T10:36:56;101573.0;;;23.37;57.49
67430;BME280;54298;52.076;5.264;2022-08-21T10:38:55;101564.0;;;23.28;56.59
67430;BME280;54298;52.076;5.264;2022-08-21T10:40:38;101564.0;;;23.26;56.57
67430;BME280;54298;52.076;5.264;2022-08-21T10:42:27;101568.0;;;23.32;56.36
67430;BME280;54298;52.076;5.264;2022-08-21T10:46:03;101561.0;;;23.39;55.5
67430;BME280;54298;52.076;5.264;2022-08-21T10:47:55;101555.0;;;23.22;54.81
67430;BME280;54298;52.076;5.264;2022-08-21T10:49:40;101552.0;;;23.22;55.35
67430;BME280;54298;52.076;5.264;2022-08-21T10:51:28;101547.0;;;23.3;55.83
67430;BME280;54298;52.076;5.264;2022-08-21T10:53:17;101547.0;;;23.36;55.12
67430;BME280;54298;52.076;5.264;2022-08-21T10:55:08;101545.0;;;23.29;55.13
67430;BME280;54298;52.076;5.264;2022-08-21T10:58:36;101548.0;;;23.41;55.61
67430;BME280;54298;52.076;5.264;2022-08-21T11:00:19;101546.0;;;23.53;55.09
67430;BME280;54298;52.076;5.264;2022-08-21T11:02:02;101547.0;;;23.7;54.8
67430;BME280;54298;52.076;5.264;2022-08-21T11:03:45;101545.0;;;23.67;54.64
67430;BME280;54298;52.076;5.264;2022-08-21T11:05:31;101542.0;;;23.79;53.62
67430;BME280;54298;52.076;5.264;2022-08-21T11:09:03;101541.0;;;23.7;52.78
67430;BME280;54298;52.076;5.264;2022-08-21T11:10:50;101538.0;;;23.79;53.23
67430;BME280;54298;52.076;5.264;2022-08-21T11:12:34;101536.0;;;23.68;52.72